createdAt,value
2018-03-16T00:00:35.520Z,92.75
2018-03-16T00:03:03.887Z,102.68
2018-03-16T00:05:32.167Z,97.50
2018-03-16T00:08:00.452Z,102.28
2018-03-16T00:10:28.739Z,109.00
2018-03-16T00:12:57.011Z,108.87
2018-03-16T00:15:26.060Z,108.97
2018-03-16T00:17:54.339Z,101.05
2018-03-16T00:20:22.639Z,102.90
2018-03-16T00:22:51.016Z,95.80
2018-03-16T00:25:19.400Z,94.37
2018-03-16T00:27:49.203Z,99.35
2018-03-16T00:30:17.498Z,95.40
2018-03-16T00:32:45.859Z,103.12
2018-03-16T00:35:14.231Z,100.15
2018-03-16T00:37:42.987Z,97.57
2018-03-16T00:40:11.314Z,100.82
2018-03-16T00:42:39.611Z,102.90
2018-03-16T00:45:08.656Z,108.03
2018-03-16T00:47:37.047Z,98.18
2018-03-16T00:50:05.731Z,96.10
2018-03-16T00:52:34.112Z,98.20
2018-03-16T00:55:02.386Z,107.18
2018-03-16T00:57:30.672Z,106.82
2018-03-16T00:59:58.941Z,93.60
2018-03-16T01:02:27.318Z,104.15
2018-03-16T01:04:55.594Z,102.87
2018-03-16T01:07:23.890Z,92.80
2018-03-16T01:09:52.939Z,99.72
2018-03-16T01:12:21.200Z,109.10
2018-03-16T01:14:49.486Z,102.82
2018-03-16T01:17:17.772Z,102.10
2018-03-16T01:19:46.061Z,105.72
2018-03-16T01:22:14.353Z,103.80
2018-03-16T01:24:42.639Z,103.60
2018-03-16T01:27:11.683Z,118.75
2018-03-16T01:29:39.983Z,102.62
2018-03-16T01:32:08.266Z,107.07
2018-03-16T01:34:36.543Z,115.90
2018-03-16T01:37:04.920Z,104.75
2018-03-16T01:39:33.209Z,101.62
2018-03-16T01:42:02.263Z,111.70
2018-03-16T01:44:30.571Z,105.85
2018-03-16T01:46:58.848Z,114.82
2018-03-16T01:49:27.147Z,108.63
2018-03-16T01:51:56.182Z,114.20
2018-03-16T01:54:24.462Z,111.65
2018-03-16T01:56:52.743Z,110.75
2018-03-16T01:59:21.028Z,114.68
2018-03-16T02:01:49.308Z,112.47
2018-03-16T02:04:17.691Z,111.15
2018-03-16T02:06:46.055Z,113.37
2018-03-16T02:09:14.438Z,113.78
2018-03-16T02:11:42.730Z,111.37
2018-03-16T02:14:11.086Z,107.03
2018-03-16T02:16:40.091Z,112.12
2018-03-16T02:19:08.367Z,102.87
2018-03-16T02:21:36.635Z,114.05
2018-03-16T02:24:05.019Z,111.00
2018-03-16T02:26:33.393Z,114.45
2018-03-16T02:29:01.767Z,110.32
2018-03-16T02:31:30.152Z,101.75
2018-03-16T02:33:58.527Z,110.35
2018-03-16T02:36:26.904Z,109.15
2018-03-16T02:38:55.192Z,111.47
2018-03-16T02:41:23.545Z,115.85
2018-03-16T02:43:51.826Z,117.15
2018-03-16T02:46:20.105Z,110.43
2018-03-16T02:48:48.388Z,126.80
2018-03-16T02:51:16.748Z,111.35
2018-03-16T02:53:45.038Z,113.20
2018-03-16T02:56:13.308Z,114.70
2018-03-16T02:58:41.722Z,110.60
2018-03-16T03:01:10.800Z,106.85
2018-03-16T03:03:39.198Z,116.45
2018-03-16T03:06:07.545Z,114.35
2018-03-16T03:08:35.832Z,104.50
2018-03-16T03:11:04.919Z,111.35
2018-03-16T03:13:33.203Z,116.32
2018-03-16T03:16:01.491Z,116.07
2018-03-16T03:18:30.539Z,108.05
2018-03-16T03:20:58.839Z,109.90
2018-03-16T03:23:27.127Z,121.10
2018-03-16T03:25:55.489Z,115.53
2018-03-16T03:28:23.868Z,113.95
2018-03-16T03:30:53.655Z,114.45
2018-03-16T03:33:21.933Z,118.97
2018-03-16T03:35:50.492Z,122.07
2018-03-16T03:38:18.815Z,121.65
2018-03-16T03:40:47.104Z,120.13
2018-03-16T03:43:15.380Z,121.53
2018-03-16T03:45:44.456Z,119.62
2018-03-16T03:48:12.831Z,111.43
2018-03-16T03:50:41.211Z,117.37
2018-03-16T03:53:09.592Z,106.20
2018-03-16T03:55:39.504Z,115.20
2018-03-16T03:58:07.884Z,112.90
2018-03-16T04:00:36.265Z,111.53
2018-03-16T04:03:04.637Z,106.18
2018-03-16T04:05:34.433Z,116.78
2018-03-16T04:08:02.717Z,116.22
2018-03-16T04:10:31.101Z,114.32
2018-03-16T04:12:59.389Z,116.40
2018-03-16T04:15:27.668Z,115.88
2018-03-16T04:17:56.723Z,118.85
2018-03-16T04:20:25.025Z,107.25
2018-03-16T04:22:54.815Z,118.43
2018-03-16T04:25:23.112Z,115.12
2018-03-16T04:27:51.420Z,109.30
2018-03-16T04:30:20.472Z,119.55
2018-03-16T04:32:48.756Z,109.82
2018-03-16T04:35:17.131Z,125.85
2018-03-16T04:37:46.231Z,119.90
2018-03-16T04:40:14.511Z,114.60
2018-03-16T04:42:42.792Z,111.72
2018-03-16T04:45:11.081Z,122.85
2018-03-16T04:47:40.155Z,118.10
2018-03-16T04:50:08.532Z,120.78
2018-03-16T04:52:36.813Z,118.68
2018-03-16T04:55:05.091Z,115.00
2018-03-16T04:57:33.456Z,120.80
2018-03-16T05:00:01.751Z,116.10
2018-03-16T05:02:30.807Z,123.20
2018-03-16T05:04:59.074Z,120.95
2018-03-16T05:07:27.363Z,119.78
2018-03-16T05:09:55.644Z,115.75
2018-03-16T05:12:24.028Z,116.25
2018-03-16T05:14:52.406Z,123.47
2018-03-16T05:17:20.698Z,118.90
2018-03-16T05:19:49.062Z,113.95
2018-03-16T05:22:17.359Z,121.53
2018-03-16T05:24:46.403Z,122.37
2018-03-16T05:27:14.703Z,121.82
2018-03-16T05:29:43.075Z,127.90
2018-03-16T05:32:11.381Z,123.78
2018-03-16T05:34:40.455Z,105.60
2018-03-16T05:37:08.732Z,113.50
2018-03-16T05:39:37.783Z,110.35
2018-03-16T05:42:06.409Z,119.50
2018-03-16T05:44:34.793Z,112.50
2018-03-16T05:47:03.072Z,110.28
2018-03-16T05:49:31.352Z,86.50
2018-03-16T05:52:00.085Z,104.12
2018-03-16T05:54:28.396Z,104.25
2018-03-16T05:56:56.880Z,106.60
2018-03-16T05:59:25.361Z,97.03
2018-03-16T06:01:53.623Z,103.05
2018-03-16T06:04:21.921Z,110.65
2018-03-16T06:06:50.905Z,108.05
2018-03-16T06:09:19.180Z,103.38
2018-03-16T06:11:47.559Z,92.60
2018-03-16T06:14:15.835Z,99.60
2018-03-16T06:16:44.204Z,106.43
2018-03-16T06:19:12.485Z,88.37
2018-03-16T06:21:40.761Z,90.50
2018-03-16T06:24:09.127Z,97.00
2018-03-16T06:26:37.512Z,99.87
2018-03-16T06:29:05.898Z,110.15
2018-03-16T06:31:34.168Z,95.65
2018-03-16T06:34:02.448Z,100.65
2018-03-16T06:36:32.236Z,95.45
2018-03-16T06:39:00.512Z,108.63
2018-03-16T06:41:28.801Z,116.68
2018-03-16T06:43:57.080Z,122.97
2018-03-16T06:46:25.363Z,121.18
2018-03-16T06:48:53.643Z,113.57
2018-03-16T06:51:21.920Z,133.55
2018-03-16T06:53:50.987Z,130.02
2018-03-16T06:56:19.380Z,132.37
2018-03-16T06:58:47.663Z,130.27
2018-03-16T07:01:16.020Z,108.00
2018-03-16T07:03:44.336Z,107.30
2018-03-16T07:06:13.404Z,101.50
2018-03-16T07:08:41.780Z,99.65
2018-03-16T07:11:10.060Z,89.53
2018-03-16T07:13:38.409Z,100.32
2018-03-16T07:16:06.692Z,118.00
2018-03-16T07:18:34.986Z,110.65
2018-03-16T07:21:03.274Z,107.70
2018-03-16T07:23:31.552Z,105.70
2018-03-16T07:26:00.634Z,122.25
2018-03-16T07:28:28.925Z,118.72
2018-03-16T07:30:58.077Z,133.70
2018-03-16T07:33:26.376Z,124.78
2018-03-16T07:35:54.752Z,130.45
2018-03-16T07:38:23.134Z,136.05
2018-03-16T07:40:51.503Z,118.57
2018-03-16T07:43:19.888Z,114.43
2018-03-16T07:45:53.912Z,114.65
2018-03-16T07:48:22.208Z,106.80
2018-03-16T07:50:50.560Z,136.27
2018-03-16T07:53:18.928Z,127.68
2018-03-16T07:55:47.359Z,120.87
2018-03-16T07:58:15.887Z,124.43
2018-03-16T08:00:44.230Z,115.40
2018-03-16T08:03:12.684Z,104.57
2018-03-16T08:05:42.078Z,105.82
2018-03-16T08:08:11.192Z,109.47
2018-03-16T08:10:40.232Z,96.40
2018-03-16T08:13:08.520Z,99.57
2018-03-16T08:15:37.224Z,116.37
2018-03-16T08:18:06.304Z,96.63
2018-03-16T08:20:34.679Z,99.43
2018-03-16T08:23:03.055Z,99.03
2018-03-16T08:25:31.335Z,96.82
2018-03-16T08:27:59.743Z,99.37
2018-03-16T08:30:28.033Z,90.05
2018-03-16T08:32:56.468Z,99.60
2018-03-16T08:35:24.740Z,94.72
2018-03-16T08:37:53.023Z,103.50
2018-03-16T08:40:21.299Z,103.93
2018-03-16T08:42:49.584Z,98.32
2018-03-16T08:45:18.631Z,98.80
2018-03-16T08:47:47.099Z,100.93
2018-03-16T08:50:15.452Z,86.97
2018-03-16T08:52:43.808Z,96.97
2018-03-16T08:55:12.176Z,82.65
2018-03-16T08:57:40.456Z,100.72
2018-03-16T09:00:08.735Z,97.50
2018-03-16T09:02:37.099Z,94.40
2018-03-16T09:05:05.427Z,94.80
2018-03-16T09:07:33.699Z,86.80
2018-03-16T09:10:01.984Z,89.82
2018-03-16T09:12:30.342Z,90.12
2018-03-16T09:14:58.588Z,90.32
2018-03-16T09:17:27.638Z,95.82
2018-03-16T09:19:55.905Z,83.68
2018-03-16T09:22:24.487Z,92.20
2018-03-16T09:24:52.855Z,83.45
2018-03-16T09:27:21.140Z,77.20
2018-03-16T09:29:49.432Z,52.75
2018-03-16T09:32:17.827Z,70.40
2018-03-16T09:34:46.119Z,69.72
2018-03-16T09:37:14.495Z,69.18
2018-03-16T09:39:42.770Z,67.15
2018-03-16T09:42:11.147Z,64.78
2018-03-16T09:44:39.525Z,69.72
2018-03-16T09:47:07.810Z,79.07
2018-03-16T09:49:36.176Z,70.75
2018-03-16T09:52:04.443Z,67.15
2018-03-16T09:54:53.516Z,64.80
2018-03-16T09:57:21.893Z,67.15
2018-03-16T09:59:50.184Z,69.62
2018-03-16T10:02:18.651Z,68.10
2018-03-16T10:04:46.920Z,67.18
2018-03-16T10:07:15.300Z,69.07
2018-03-16T10:09:43.672Z,76.62
2018-03-16T10:12:12.052Z,73.43
2018-03-16T10:14:40.428Z,70.97
2018-03-16T10:17:08.710Z,84.85
2018-03-16T10:19:36.987Z,71.03
2018-03-16T10:22:05.366Z,81.22
2018-03-16T10:24:33.731Z,76.03
2018-03-16T10:27:01.998Z,66.35
2018-03-16T10:29:30.396Z,71.93
2018-03-16T10:31:58.664Z,70.30
2018-03-16T10:34:26.935Z,81.97
2018-03-16T10:36:55.211Z,61.40
2018-03-16T10:39:23.483Z,73.07
2018-03-16T10:41:51.767Z,63.33
2018-03-16T10:44:20.148Z,74.95
2018-03-16T10:46:48.724Z,72.32
2018-03-16T10:49:17.003Z,81.78
2018-03-16T10:51:45.377Z,65.05
2018-03-16T10:54:13.656Z,63.15
2018-03-16T10:56:41.927Z,67.07
2018-03-16T10:59:10.313Z,67.78
2018-03-16T11:01:44.268Z,67.40
2018-03-16T11:04:13.444Z,64.12
2018-03-16T11:09:43.116Z,65.68
2018-03-16T11:12:11.423Z,65.45
2018-03-16T11:14:39.691Z,56.10
2018-03-16T11:17:07.981Z,58.22
2018-03-16T11:19:36.353Z,47.58
2018-03-16T11:22:04.720Z,50.53
2018-03-16T11:24:33.104Z,47.05
2018-03-16T11:27:01.492Z,54.05
2018-03-16T11:29:29.768Z,56.05
2018-03-16T11:31:58.035Z,52.58
2018-03-16T11:34:26.419Z,47.60
2018-03-16T11:36:54.789Z,52.65
2018-03-16T11:39:23.163Z,44.15
2018-03-16T11:41:51.439Z,48.60
2018-03-16T11:44:19.711Z,47.72
2018-03-16T11:46:48.093Z,50.75
2018-03-16T11:49:16.400Z,48.33
2018-03-16T11:51:45.577Z,38.15
2018-03-16T11:54:15.383Z,44.47
2018-03-16T11:56:43.656Z,39.33
2018-03-16T11:59:11.932Z,39.20
2018-03-16T12:01:40.212Z,38.67
2018-03-16T12:04:08.487Z,44.17
2018-03-16T12:06:36.762Z,35.60
2018-03-16T12:09:05.145Z,40.35
2018-03-16T12:11:34.924Z,40.85
2018-03-16T12:14:03.225Z,37.63
2018-03-16T12:16:31.497Z,35.92
2018-03-16T12:18:59.870Z,32.42
2018-03-16T12:21:28.171Z,39.00
2018-03-16T12:23:57.220Z,41.13
2018-03-16T12:26:25.492Z,38.10
2018-03-16T12:28:53.803Z,36.85
2018-03-16T12:31:22.074Z,36.42
2018-03-16T12:33:50.452Z,46.47
2018-03-16T12:36:18.829Z,31.65
2018-03-16T12:38:47.112Z,37.65
2018-03-16T12:41:15.475Z,36.53
2018-03-16T12:43:43.963Z,38.70
2018-03-16T12:46:12.236Z,31.48
2018-03-16T12:48:42.020Z,29.98
2018-03-16T12:51:10.295Z,28.50
2018-03-16T12:53:38.577Z,18.58
2018-03-16T12:56:06.848Z,32.45
2018-03-16T12:58:35.148Z,32.95
2018-03-16T13:01:03.447Z,31.40
2018-03-16T13:03:32.510Z,30.98
2018-03-16T13:06:00.888Z,31.87
2018-03-16T13:08:29.267Z,35.50
2018-03-16T13:10:57.556Z,36.67
2018-03-16T13:13:25.820Z,35.92
2018-03-16T13:15:54.199Z,36.97
2018-03-16T13:18:22.471Z,36.80
2018-03-16T13:20:50.753Z,38.28
2018-03-16T13:23:19.275Z,38.25
2018-03-16T13:25:47.527Z,36.55
2018-03-16T13:28:16.574Z,34.63
2018-03-16T13:30:44.854Z,34.13
2018-03-16T13:33:13.147Z,30.62
2018-03-16T13:35:41.436Z,27.65
2018-03-16T13:38:09.715Z,34.78
2018-03-16T13:40:38.077Z,32.70
2018-03-16T13:43:06.360Z,30.42
2018-03-16T13:45:34.740Z,31.33
2018-03-16T13:48:03.286Z,23.42
2018-03-16T13:50:31.555Z,31.15
2018-03-16T13:52:59.837Z,32.45
2018-03-16T13:55:28.148Z,29.83
2018-03-16T13:57:56.515Z,31.05
2018-03-16T14:00:24.895Z,33.80
2018-03-16T14:02:53.217Z,32.30
2018-03-16T14:05:22.269Z,30.15
2018-03-16T14:07:50.644Z,22.90
2018-03-16T14:10:18.978Z,28.58
2018-03-16T14:12:47.307Z,29.45
2018-03-16T14:15:15.680Z,29.63
2018-03-16T14:17:44.062Z,29.33
2018-03-16T14:20:12.508Z,35.50
2018-03-16T14:22:40.816Z,32.83
2018-03-16T14:25:09.112Z,35.65
2018-03-16T14:27:38.155Z,33.72
2018-03-16T14:30:06.429Z,32.90
2018-03-16T14:32:34.719Z,29.48
2018-03-16T14:35:03.120Z,32.67
2018-03-16T14:37:31.396Z,31.67
2018-03-16T14:39:59.760Z,36.22
2018-03-16T14:42:28.051Z,35.92
2018-03-16T14:44:56.428Z,32.25
2018-03-16T14:47:24.709Z,37.85
2018-03-16T14:49:52.988Z,33.83
2018-03-16T14:52:21.357Z,28.27
2018-03-16T14:54:49.647Z,37.88
2018-03-16T14:57:18.760Z,35.65
2018-03-16T14:59:47.103Z,27.50
2018-03-16T15:02:15.489Z,34.08
2018-03-16T15:04:43.755Z,39.45
2018-03-16T15:07:12.125Z,38.03
2018-03-16T15:09:40.503Z,36.28
2018-03-16T15:12:08.818Z,38.60
2018-03-16T15:14:37.100Z,38.75
2018-03-16T15:17:05.393Z,35.20
2018-03-16T15:19:33.684Z,30.23
2018-03-16T15:22:01.987Z,42.28
2018-03-16T15:24:30.234Z,30.27
2018-03-16T15:26:58.524Z,40.17
2018-03-16T15:29:26.870Z,39.92
2018-03-16T15:31:55.142Z,37.45
2018-03-16T15:34:23.419Z,41.72
2018-03-16T15:36:51.704Z,38.67
2018-03-16T15:39:19.982Z,36.67
2018-03-16T15:41:48.285Z,40.47
2018-03-16T15:44:16.601Z,35.45
2018-03-16T15:46:45.619Z,39.72
2018-03-16T15:49:14.795Z,37.63
2018-03-16T15:51:43.867Z,36.25
2018-03-16T15:54:12.891Z,42.08
2018-03-16T15:56:41.185Z,46.97
2018-03-16T15:59:09.459Z,46.55
2018-03-16T16:01:37.718Z,46.08
2018-03-16T16:04:05.979Z,47.95
2018-03-16T16:06:34.285Z,48.13
2018-03-16T16:09:02.540Z,44.63
2018-03-16T16:11:30.841Z,48.70
2018-03-16T16:13:59.284Z,45.85
2018-03-16T16:16:27.586Z,42.33
2018-03-16T16:18:55.870Z,46.95
2018-03-16T16:21:24.168Z,53.80
2018-03-16T16:23:52.413Z,39.97
2018-03-16T16:26:20.767Z,47.25
2018-03-16T16:28:49.028Z,43.97
2018-03-16T16:31:17.300Z,46.90
2018-03-16T16:33:46.326Z,40.10
2018-03-16T16:36:14.588Z,42.95
2018-03-16T16:38:42.891Z,43.25
2018-03-16T16:41:11.138Z,41.83
2018-03-16T16:43:39.393Z,40.45
2018-03-16T16:46:08.427Z,46.50
2018-03-16T16:48:36.722Z,43.70
2018-03-16T16:51:04.973Z,49.20
2018-03-16T16:53:33.229Z,41.03
2018-03-16T16:56:01.525Z,48.73
2018-03-16T16:58:29.811Z,42.67
2018-03-16T17:00:58.076Z,42.03
2018-03-16T17:03:26.321Z,40.10
2018-03-16T17:05:54.582Z,41.85
2018-03-16T17:08:23.606Z,41.72
2018-03-16T17:10:51.919Z,45.35
2018-03-16T17:13:20.171Z,46.33
2018-03-16T17:15:48.554Z,47.30
2018-03-16T17:18:16.810Z,55.60
2018-03-16T17:20:45.071Z,45.10
2018-03-16T17:23:13.482Z,45.08
2018-03-16T17:25:41.743Z,46.80
2018-03-16T17:28:09.998Z,37.05
2018-03-16T17:30:38.312Z,31.02
2018-03-16T17:33:06.677Z,35.25
2018-03-16T17:35:34.931Z,29.85
2018-03-16T17:38:03.240Z,34.38
2018-03-16T17:40:31.490Z,39.03
2018-03-16T17:42:59.752Z,35.03
2018-03-16T17:45:28.001Z,31.33
2018-03-16T17:47:57.021Z,30.02
2018-03-16T17:50:25.341Z,40.65
2018-03-16T17:52:53.813Z,32.13
2018-03-16T17:55:22.106Z,32.72
2018-03-16T17:57:50.336Z,36.72
2018-03-16T18:00:18.625Z,32.17
2018-03-16T18:02:46.969Z,35.83
2018-03-16T18:05:15.996Z,36.83
2018-03-16T18:07:44.243Z,35.53
2018-03-16T18:10:12.521Z,33.97
2018-03-16T18:12:40.792Z,37.35
2018-03-16T18:15:09.818Z,36.60
2018-03-16T18:17:38.066Z,33.30
2018-03-16T18:20:06.371Z,30.40
2018-03-16T18:22:34.626Z,31.30
2018-03-16T18:25:02.930Z,36.03
2018-03-16T18:27:31.203Z,35.05
2018-03-16T18:29:59.479Z,32.80
2018-03-16T18:32:27.731Z,34.90
2018-03-16T18:34:56.093Z,33.53
2018-03-16T18:37:24.397Z,37.05
2018-03-16T18:39:52.652Z,33.15
2018-03-16T18:42:20.905Z,38.83
2018-03-16T18:44:50.126Z,37.95
2018-03-16T18:47:18.393Z,28.12
2018-03-16T18:49:46.697Z,38.92
2018-03-16T18:52:14.961Z,34.08
2018-03-16T18:54:43.237Z,30.60
2018-03-16T18:57:11.527Z,33.30
2018-03-16T18:59:39.786Z,30.83
2018-03-16T19:02:08.034Z,32.20
2018-03-16T19:04:36.482Z,28.65
2018-03-16T19:07:04.837Z,36.17
2018-03-16T19:09:33.095Z,35.97
2018-03-16T19:12:01.390Z,33.38
2018-03-16T19:14:29.649Z,27.85
2018-03-16T19:16:57.907Z,31.48
2018-03-16T19:19:26.163Z,35.22
2018-03-16T19:21:55.306Z,32.70
2018-03-16T19:24:23.666Z,29.90
2018-03-16T19:26:51.914Z,31.85
2018-03-16T19:29:20.949Z,35.40
2018-03-16T19:31:49.227Z,31.35
2018-03-16T19:34:17.478Z,33.78
2018-03-16T19:36:45.766Z,31.87
2018-03-16T19:39:14.018Z,33.28
2018-03-16T19:41:42.285Z,32.53
2018-03-16T19:44:11.322Z,25.60
2018-03-16T19:46:39.595Z,28.83
2018-03-16T19:49:07.845Z,34.70
2018-03-16T19:51:36.152Z,29.02
2018-03-16T19:54:04.403Z,33.50
2018-03-16T19:56:32.726Z,28.95
2018-03-16T19:59:00.978Z,37.45
2018-03-16T20:01:29.247Z,33.90
2018-03-16T20:03:57.530Z,31.42
2018-03-16T20:06:25.796Z,31.92
2018-03-16T20:08:54.033Z,31.98
2018-03-16T20:11:23.074Z,28.77
2018-03-16T20:13:51.330Z,33.97
2018-03-16T20:16:19.574Z,35.15
2018-03-16T20:18:48.597Z,27.92
2018-03-16T20:21:16.848Z,29.00
2018-03-16T20:23:45.788Z,31.20
2018-03-16T20:26:14.041Z,37.55
2018-03-16T20:28:42.317Z,33.45
2018-03-16T20:31:10.581Z,30.23
2018-03-16T20:33:38.846Z,31.75
2018-03-16T20:36:07.106Z,34.22
2018-03-16T20:38:36.133Z,34.25
2018-03-16T20:41:04.422Z,31.70
2018-03-16T20:43:32.698Z,25.60
2018-03-16T20:46:00.950Z,27.02
2018-03-16T20:48:29.206Z,20.67
2018-03-16T20:50:58.219Z,23.12
2018-03-16T20:53:26.476Z,22.37
2018-03-16T20:55:55.493Z,26.08
2018-03-16T20:58:23.773Z,24.50
2018-03-16T21:00:52.033Z,27.17
2018-03-16T21:03:20.338Z,27.20
2018-03-16T21:05:48.925Z,22.48
2018-03-16T21:08:17.324Z,27.65
2018-03-16T21:10:45.574Z,27.75
2018-03-16T21:13:13.859Z,23.98
2018-03-16T21:15:42.110Z,25.15
2018-03-16T21:18:10.741Z,25.58
2018-03-16T21:20:38.985Z,24.48
2018-03-16T21:23:07.362Z,26.60
2018-03-16T21:25:35.654Z,24.83
2018-03-16T21:28:03.958Z,24.52
2018-03-16T21:30:33.070Z,20.77
2018-03-16T21:33:02.167Z,24.58
2018-03-16T21:35:31.180Z,25.62
2018-03-16T21:37:59.705Z,26.30
2018-03-16T21:40:28.431Z,23.92
2018-03-16T21:42:57.639Z,22.37
2018-03-16T21:45:25.881Z,22.37
2018-03-16T21:47:55.034Z,23.75
2018-03-16T21:50:23.344Z,27.42
2018-03-16T21:52:51.610Z,23.98
2018-03-16T21:55:20.035Z,23.33
2018-03-16T21:57:48.551Z,25.05
2018-03-16T22:00:17.796Z,24.20
2018-03-16T22:02:46.169Z,21.65
2018-03-16T22:05:15.198Z,22.87
2018-03-16T22:07:43.450Z,27.70
2018-03-16T22:10:12.465Z,27.10
2018-03-16T22:12:40.719Z,23.50
2018-03-16T22:15:09.742Z,23.73
2018-03-16T22:17:37.990Z,27.40
2018-03-16T22:20:07.058Z,24.60
2018-03-16T22:22:35.398Z,28.48
2018-03-16T22:25:03.654Z,24.48
2018-03-16T22:27:31.905Z,26.25
2018-03-16T22:30:01.037Z,26.67
2018-03-16T22:32:29.334Z,22.15
2018-03-16T22:34:57.557Z,23.65
2018-03-16T22:37:25.814Z,21.27
2018-03-16T22:39:54.860Z,24.65
2018-03-16T22:42:23.139Z,20.67
2018-03-16T22:44:51.418Z,19.95
2018-03-16T22:47:19.694Z,24.25
2018-03-16T22:49:47.957Z,20.10
2018-03-16T22:52:16.216Z,20.50
2018-03-16T22:54:44.475Z,21.70
2018-03-16T22:57:13.502Z,24.40
2018-03-16T22:59:41.760Z,21.65
2018-03-16T23:02:10.029Z,24.65
2018-03-16T23:04:38.290Z,20.55
2018-03-16T23:07:07.321Z,21.55
2018-03-16T23:09:35.583Z,20.67
2018-03-16T23:12:03.878Z,16.75
2018-03-16T23:14:32.146Z,18.58
2018-03-16T23:17:00.389Z,19.87
2018-03-16T23:19:28.698Z,22.33
2018-03-16T23:21:56.965Z,21.12
2018-03-16T23:24:25.279Z,17.60
2018-03-16T23:26:53.976Z,20.30
2018-03-16T23:29:22.324Z,18.75
2018-03-16T23:31:50.586Z,20.33
2018-03-16T23:34:18.833Z,20.92
2018-03-16T23:36:47.100Z,23.02
2018-03-16T23:39:15.357Z,20.17
2018-03-16T23:41:45.129Z,20.27
2018-03-16T23:44:13.398Z,23.30
2018-03-16T23:46:41.658Z,19.02
2018-03-16T23:49:09.953Z,24.70
2018-03-16T23:51:38.302Z,19.80
2018-03-16T23:54:06.565Z,16.42
2018-03-16T23:56:35.701Z,15.63
2018-03-16T23:59:03.949Z,18.83
